Falls International Airport
KINL : now visible

Airfield :











YOU CAN JOIN US ON...

 
LOGIN :

Register | Disclaimer

   EN    FR    IT 

 









Legend :    VFR   Marginal VFR   IFR   Intensive IFR   Very Intensive IFR
Visi :
Ceiling :
>= 8 km
>= 3000ft
5 to 8 km
1000 to 3000 ft
1500m to 5 km
500 to 1000 ft
800 to 1500m
200 to 500 ft
< 800m
< 200 ft
Symbols :   Thunderstorms  Fog  Heavy snow  Heavy precipitations  Wind > 20 kt






- Airport Elevation : 1185 ft
- IATA code : INL


KINL - Falls International

CURRENT METAR :
  • 080355Z AUTO 26005KT 10SM OVC060 05/M03 A2970 RMK AO2 SLP067 T00501028

EXPIRED METARs :
  • 080255Z AUTO 29005KT 10SM SCT080 OVC100 06/M03 A2970 RMK AO2 SLP066 T00561028 51013
  • 080155Z AUTO 28009KT 10SM FEW100 BKN120 07/M03 A2970 RMK AO2 SLP066 T00671033

TAF KINL
Valid from the 08 at 00:00 until the 09 at 00:00 UTC


072339Z 0800/0824 29010G18KT P6SM VCSH BKN090
FM080100 29005KT P6SM BKN150
FM081100 28009KT P6SM BKN011
FM081500 29014G23KT P6SM OVC023
FM081700 29015G25KT P6SM BKN035



MET'MAP, your aeronautical weather chart ! - Copyright ORBIFLY December 2007 - Disclaimer

ORBIFLY MET'MAP TEAM :

Programming & Development : Alexandra Zaïnal
Concept & original design : Baudouin d'Aumeries
Assistance for programming : Marc-Olivier Méhu
Technical & hardware support : Manuel Goepfert

Contact : metmap@orbifly.com




SOURCES & CREDITS :

   NOAA       Earth
Advisory